sensor_id;sensor_type;location;lat;lon;timestamp;P1;durP1;ratioP1;P2;durP2;ratioP2
57313;SDS011;53202;50.976;18.216;2022-11-20T00:08:04;74.00;;;45.70;;
57313;SDS011;53202;50.976;18.216;2022-11-20T00:17:49;74.70;;;27.20;;
57313;SDS011;53202;50.976;18.216;2022-11-20T00:27:32;39.80;;;20.70;;
57313;SDS011;53202;50.976;18.216;2022-11-20T00:37:16;37.60;;;17.10;;
57313;SDS011;53202;50.976;18.216;2022-11-20T00:46:58;93.40;;;23.80;;
57313;SDS011;53202;50.976;18.216;2022-11-20T00:56:41;90.40;;;20.30;;
57313;SDS011;53202;50.976;18.216;2022-11-20T01:06:28;54.00;;;24.10;;
57313;SDS011;53202;50.976;18.216;2022-11-20T01:16:19;44.70;;;20.20;;
57313;SDS011;53202;50.976;18.216;2022-11-20T01:26:10;42.40;;;28.40;;
57313;SDS011;53202;50.976;18.216;2022-11-20T01:43:33;50.20;;;24.30;;
57313;SDS011;53202;50.976;18.216;2022-11-20T01:53:29;35.60;;;23.30;;
57313;SDS011;53202;50.976;18.216;2022-11-20T02:10:48;70.20;;;30.80;;
57313;SDS011;53202;50.976;18.216;2022-11-20T02:20:45;49.80;;;25.90;;
57313;SDS011;53202;50.976;18.216;2022-11-20T02:30:34;37.30;;;21.90;;
57313;SDS011;53202;50.976;18.216;2022-11-20T02:40:37;52.80;;;16.50;;
57313;SDS011;53202;50.976;18.216;2022-11-20T02:57:38;63.70;;;29.40;;
57313;SDS011;53202;50.976;18.216;2022-11-20T03:07:22;36.70;;;20.20;;
57313;SDS011;53202;50.976;18.216;2022-11-20T03:24:26;42.50;;;20.00;;
57313;SDS011;53202;50.976;18.216;2022-11-20T03:34:10;64.00;;;24.40;;
57313;SDS011;53202;50.976;18.216;2022-11-20T03:43:57;66.60;;;27.60;;
57313;SDS011;53202;50.976;18.216;2022-11-20T03:53:43;123.60;;;26.80;;
57313;SDS011;53202;50.976;18.216;2022-11-20T04:03:32;30.30;;;21.40;;
57313;SDS011;53202;50.976;18.216;2022-11-20T04:13:41;54.90;;;35.60;;
57313;SDS011;53202;50.976;18.216;2022-11-20T04:23:26;124.90;;;32.60;;
57313;SDS011;53202;50.976;18.216;2022-11-20T04:33:09;89.50;;;28.90;;
57313;SDS011;53202;50.976;18.216;2022-11-20T04:42:54;74.40;;;19.30;;
57313;SDS011;53202;50.976;18.216;2022-11-20T04:52:37;56.20;;;26.90;;
57313;SDS011;53202;50.976;18.216;2022-11-20T05:02:20;105.10;;;35.00;;
57313;SDS011;53202;50.976;18.216;2022-11-20T05:12:03;69.20;;;27.00;;
57313;SDS011;53202;50.976;18.216;2022-11-20T05:21:46;63.10;;;35.90;;
57313;SDS011;53202;50.976;18.216;2022-11-20T05:31:29;90.70;;;36.10;;
57313;SDS011;53202;50.976;18.216;2022-11-20T05:41:14;70.10;;;32.60;;
57313;SDS011;53202;50.976;18.216;2022-11-20T05:51:02;54.70;;;24.70;;
57313;SDS011;53202;50.976;18.216;2022-11-20T06:00:48;27.80;;;15.00;;
57313;SDS011;53202;50.976;18.216;2022-11-20T06:10:32;76.20;;;33.60;;
57313;SDS011;53202;50.976;18.216;2022-11-20T06:20:19;68.90;;;34.00;;
57313;SDS011;53202;50.976;18.216;2022-11-20T06:30:03;105.00;;;37.60;;
57313;SDS011;53202;50.976;18.216;2022-11-20T06:39:46;115.70;;;46.70;;
57313;SDS011;53202;50.976;18.216;2022-11-20T06:56:47;93.30;;;29.80;;
57313;SDS011;53202;50.976;18.216;2022-11-20T07:06:31;47.50;;;25.50;;
57313;SDS011;53202;50.976;18.216;2022-11-20T07:16:14;124.10;;;52.80;;
57313;SDS011;53202;50.976;18.216;2022-11-20T07:26:02;134.80;;;34.70;;
57313;SDS011;53202;50.976;18.216;2022-11-20T07:35:46;128.60;;;50.20;;
57313;SDS011;53202;50.976;18.216;2022-11-20T07:52:46;102.90;;;44.20;;
57313;SDS011;53202;50.976;18.216;2022-11-20T08:02:30;129.00;;;53.10;;
57313;SDS011;53202;50.976;18.216;2022-11-20T08:12:17;93.30;;;41.50;;
57313;SDS011;53202;50.976;18.216;2022-11-20T08:22:15;165.50;;;52.30;;
57313;SDS011;53202;50.976;18.216;2022-11-20T08:32:00;132.90;;;57.00;;
57313;SDS011;53202;50.976;18.216;2022-11-20T08:41:43;110.40;;;52.20;;
57313;SDS011;53202;50.976;18.216;2022-11-20T08:51:29;85.80;;;39.30;;
57313;SDS011;53202;50.976;18.216;2022-11-20T09:01:13;150.80;;;47.80;;
57313;SDS011;53202;50.976;18.216;2022-11-20T09:10:57;159.30;;;75.80;;
57313;SDS011;53202;50.976;18.216;2022-11-20T09:20:45;168.30;;;75.80;;
57313;SDS011;53202;50.976;18.216;2022-11-20T09:30:28;80.30;;;25.40;;
57313;SDS011;53202;50.976;18.216;2022-11-20T09:40:17;110.60;;;52.50;;
57313;SDS011;53202;50.976;18.216;2022-11-20T09:50:51;206.60;;;85.20;;
57313;SDS011;53202;50.976;18.216;2022-11-20T10:01:03;142.90;;;81.00;;
57313;SDS011;53202;50.976;18.216;2022-11-20T10:11:04;76.60;;;38.90;;
57313;SDS011;53202;50.976;18.216;2022-11-20T10:21:32;75.60;;;49.50;;
57313;SDS011;53202;50.976;18.216;2022-11-20T10:31:50;47.50;;;31.70;;
57313;SDS011;53202;50.976;18.216;2022-11-20T10:41:44;60.50;;;37.70;;
57313;SDS011;53202;50.976;18.216;2022-11-20T11:02:33;60.70;;;32.20;;
57313;SDS011;53202;50.976;18.216;2022-11-20T11:12:31;28.70;;;18.00;;
57313;SDS011;53202;50.976;18.216;2022-11-20T11:22:26;49.90;;;27.30;;
57313;SDS011;53202;50.976;18.216;2022-11-20T11:32:12;72.10;;;24.20;;
57313;SDS011;53202;50.976;18.216;2022-11-20T11:42:05;47.60;;;27.90;;
57313;SDS011;53202;50.976;18.216;2022-11-20T11:52:05;25.30;;;14.30;;
57313;SDS011;53202;50.976;18.216;2022-11-20T12:02:49;57.20;;;34.80;;
57313;SDS011;53202;50.976;18.216;2022-11-20T12:12:50;68.40;;;32.80;;
57313;SDS011;53202;50.976;18.216;2022-11-20T12:22:45;70.10;;;39.60;;
57313;SDS011;53202;50.976;18.216;2022-11-20T12:43:31;71.90;;;45.80;;
57313;SDS011;53202;50.976;18.216;2022-11-20T13:14:45;54.30;;;39.10;;
57313;SDS011;53202;50.976;18.216;2022-11-20T13:17:17;84.10;;;53.20;;
57313;SDS011;53202;50.976;18.216;2022-11-20T13:35:24;82.50;;;44.10;;
57313;SDS011;53202;50.976;18.216;2022-11-20T13:45:34;101.90;;;48.70;;
57313;SDS011;53202;50.976;18.216;2022-11-20T14:00:52;98.10;;;58.90;;
57313;SDS011;53202;50.976;18.216;2022-11-20T14:10:46;125.00;;;63.40;;
57313;SDS011;53202;50.976;18.216;2022-11-20T14:20:48;141.20;;;60.70;;
57313;SDS011;53202;50.976;18.216;2022-11-20T14:30:47;120.40;;;52.90;;
57313;SDS011;53202;50.976;18.216;2022-11-20T14:40:40;135.20;;;64.70;;
57313;SDS011;53202;50.976;18.216;2022-11-20T14:50:46;145.00;;;79.20;;
57313;SDS011;53202;50.976;18.216;2022-11-20T15:00:32;137.00;;;74.50;;
57313;SDS011;53202;50.976;18.216;2022-11-20T15:10:29;139.60;;;82.10;;
57313;SDS011;53202;50.976;18.216;2022-11-20T15:20:21;194.70;;;110.90;;
57313;SDS011;53202;50.976;18.216;2022-11-20T15:30:15;157.60;;;81.40;;
57313;SDS011;53202;50.976;18.216;2022-11-20T15:40:01;162.80;;;54.80;;
57313;SDS011;53202;50.976;18.216;2022-11-20T16:04:23;208.30;;;100.70;;
57313;SDS011;53202;50.976;18.216;2022-11-20T16:14:09;203.10;;;101.50;;
57313;SDS011;53202;50.976;18.216;2022-11-20T16:24:07;208.10;;;122.80;;
57313;SDS011;53202;50.976;18.216;2022-11-20T16:33:55;236.60;;;128.20;;
57313;SDS011;53202;50.976;18.216;2022-11-20T16:43:48;138.50;;;51.50;;
57313;SDS011;53202;50.976;18.216;2022-11-20T16:53:34;205.40;;;108.90;;
57313;SDS011;53202;50.976;18.216;2022-11-20T17:03:36;151.90;;;74.10;;
57313;SDS011;53202;50.976;18.216;2022-11-20T17:13:31;103.10;;;38.80;;
57313;SDS011;53202;50.976;18.216;2022-11-20T17:23:18;144.60;;;86.20;;
57313;SDS011;53202;50.976;18.216;2022-11-20T17:33:03;97.90;;;49.00;;
57313;SDS011;53202;50.976;18.216;2022-11-20T17:42:51;54.10;;;23.40;;
57313;SDS011;53202;50.976;18.216;2022-11-20T17:52:36;116.40;;;46.10;;
57313;SDS011;53202;50.976;18.216;2022-11-20T18:02:31;133.50;;;77.60;;
57313;SDS011;53202;50.976;18.216;2022-11-20T18:12:15;136.40;;;71.50;;
57313;SDS011;53202;50.976;18.216;2022-11-20T18:22:01;122.00;;;63.70;;
57313;SDS011;53202;50.976;18.216;2022-11-20T18:39:08;124.70;;;59.70;;
57313;SDS011;53202;50.976;18.216;2022-11-20T18:49:23;120.80;;;51.40;;
57313;SDS011;53202;50.976;18.216;2022-11-20T19:06:26;126.00;;;63.40;;
57313;SDS011;53202;50.976;18.216;2022-11-20T19:16:14;101.00;;;42.60;;
57313;SDS011;53202;50.976;18.216;2022-11-20T19:26:02;65.30;;;24.30;;
57313;SDS011;53202;50.976;18.216;2022-11-20T19:35:52;147.90;;;67.70;;
57313;SDS011;53202;50.976;18.216;2022-11-20T19:45:38;77.20;;;32.30;;
57313;SDS011;53202;50.976;18.216;2022-11-20T20:02:39;166.90;;;70.10;;
57313;SDS011;53202;50.976;18.216;2022-11-20T20:19:41;132.60;;;68.00;;
57313;SDS011;53202;50.976;18.216;2022-11-20T20:36:44;219.10;;;95.60;;
57313;SDS011;53202;50.976;18.216;2022-11-20T20:46:47;102.70;;;52.40;;
57313;SDS011;53202;50.976;18.216;2022-11-20T20:56:33;33.90;;;19.20;;
57313;SDS011;53202;50.976;18.216;2022-11-20T21:06:19;82.50;;;45.30;;
57313;SDS011;53202;50.976;18.216;2022-11-20T21:16:04;142.60;;;68.50;;
57313;SDS011;53202;50.976;18.216;2022-11-20T21:26:06;79.10;;;41.20;;
57313;SDS011;53202;50.976;18.216;2022-11-20T21:35:53;71.60;;;43.40;;
57313;SDS011;53202;50.976;18.216;2022-11-20T21:45:36;30.70;;;15.70;;
57313;SDS011;53202;50.976;18.216;2022-11-20T21:55:21;114.20;;;51.00;;
57313;SDS011;53202;50.976;18.216;2022-11-20T22:05:05;53.90;;;20.10;;
57313;SDS011;53202;50.976;18.216;2022-11-20T22:14:49;98.20;;;22.80;;
57313;SDS011;53202;50.976;18.216;2022-11-20T22:24:32;83.80;;;28.80;;
57313;SDS011;53202;50.976;18.216;2022-11-20T22:34:15;83.10;;;40.10;;
57313;SDS011;53202;50.976;18.216;2022-11-20T22:44:00;136.10;;;82.10;;
57313;SDS011;53202;50.976;18.216;2022-11-20T22:53:47;182.00;;;91.20;;
57313;SDS011;53202;50.976;18.216;2022-11-20T23:03:46;114.10;;;36.70;;
57313;SDS011;53202;50.976;18.216;2022-11-20T23:13:33;122.50;;;37.80;;
57313;SDS011;53202;50.976;18.216;2022-11-20T23:23:17;37.60;;;25.60;;
57313;SDS011;53202;50.976;18.216;2022-11-20T23:33:00;52.30;;;18.00;;
57313;SDS011;53202;50.976;18.216;2022-11-20T23:50:20;46.20;;;29.10;;
